Burlington, Connecticut
Current Conditions -  °F | °C
As of 7:04 PM on Monday 22 Dec 2014 (Local Time) from KHFD Reporting Station
Overcast Overcast  
Wind Chill: 36°   Ceiling: 1700
Heat Index: 41°   Visibility: 10mi
Dew Point: 35°   Wind: 7mph
Humidity: 79%   Direction: 120°ESE
Pressure: 30.29"   Gusts: NA
Location:  41.76°N, 72.96°W
Report Text: KHFD 230004Z 12006KT 10SM BKN017 OVC050 05/02 A3029 RMK AO2 T00500017
Loading
Personal Weather Stations






























Interactive Weather Map New forecast layout! Learn more

10-Day Weather Forecast

Advertisements
Track Severe Weather on mobile